Time;durP1;ratioP1;P1;durP2;ratioP2;P2;SDS_P1;SDS_P2;PMS_P1;PMS_P2;Temp;Humidity;BMP_temperature;BMP_pressure;BME280_temperature;BME280_humidity;BME280_pressure;Samples;Min_cycle;Max_cycle;Signal;HPM_P1;HPM_P2
2023/07/03 00:01:02;;;;;;;10.40;6.07;;;;;;;20.45;100.00;98607.41;5103221;28;20622;-71
2023/07/03 00:03:29;;;;;;;10.03;6.23;;;;;;;20.50;100.00;98599.06;5088145;28;20240;-71
2023/07/03 00:05:57;;;;;;;11.33;6.40;;;;;;;20.41;100.00;98600.97;5085652;28;20212;-71
2023/07/03 00:08:24;;;;;;;12.27;6.27;;;;;;;20.31;100.00;98605.69;5085787;28;20252;-71
2023/07/03 00:10:51;;;;;;;11.97;6.80;;;;;;;20.34;100.00;98600.13;5087521;28;20234;-71
2023/07/03 00:13:18;;;;;;;12.03;6.20;;;;;;;20.43;100.00;98606.00;5114316;28;20252;-71
2023/07/03 00:15:44;;;;;;;10.60;6.10;;;;;;;20.47;100.00;98602.81;5112161;28;20210;-71
2023/07/03 00:18:11;;;;;;;10.63;6.17;;;;;;;20.51;100.00;98606.66;5106008;28;20300;-71
2023/07/03 00:20:39;;;;;;;9.63;5.70;;;;;;;20.56;100.00;98600.94;5094775;28;20235;-71
2023/07/03 00:23:07;;;;;;;13.23;6.50;;;;;;;20.52;100.00;98603.09;5094370;28;20628;-71
2023/07/03 00:25:34;;;;;;;10.70;6.33;;;;;;;20.49;100.00;98603.44;5112150;28;20253;-71
2023/07/03 00:28:01;;;;;;;13.07;6.43;;;;;;;20.38;100.00;98603.94;5106521;28;20206;-71
2023/07/03 00:30:28;;;;;;;10.30;5.63;;;;;;;20.37;100.00;98604.94;5095492;28;20211;-71
2023/07/03 00:32:54;;;;;;;10.33;5.93;;;;;;;20.38;100.00;98611.72;5091821;28;20734;-71
2023/07/03 00:35:21;;;;;;;13.60;6.37;;;;;;;20.27;100.00;98604.44;5091765;28;20210;-71
2023/07/03 00:37:48;;;;;;;11.63;6.03;;;;;;;20.15;100.00;98608.50;5094095;28;20291;-72
2023/07/03 00:40:16;;;;;;;11.37;6.30;;;;;;;20.11;100.00;98605.47;5091678;28;20201;-72
2023/07/03 00:42:43;;;;;;;10.40;6.00;;;;;;;20.05;100.00;98612.22;5091533;28;20628;-71
2023/07/03 00:45:11;;;;;;;13.53;7.00;;;;;;;20.04;100.00;98613.22;5091133;28;20403;-71
2023/07/03 00:47:38;;;;;;;11.63;6.00;;;;;;;20.06;100.00;98608.63;5094841;28;20204;-71
2023/07/03 00:50:06;;;;;;;12.80;6.87;;;;;;;20.01;100.00;98616.16;5091166;28;20217;-71
2023/07/03 00:52:33;;;;;;;10.10;6.40;;;;;;;19.98;100.00;98616.50;5091827;28;20241;-71
2023/07/03 00:54:59;;;;;;;10.83;6.27;;;;;;;19.93;100.00;98605.91;5095393;28;20222;-71
2023/07/03 00:57:29;;;;;;;14.53;7.40;;;;;;;19.97;100.00;98620.09;5094866;28;20214;-71
2023/07/03 00:59:56;;;;;;;10.20;6.23;;;;;;;19.95;100.00;98619.47;5090845;28;20226;-71
2023/07/03 01:02:28;;;;;;;12.77;6.33;;;;;;;19.92;100.00;98612.03;5091377;28;20725;-71
2023/07/03 01:05:00;;;;;;;15.17;6.20;;;;;;;19.98;100.00;98616.50;5093739;28;20223;-71
2023/07/03 01:07:30;;;;;;;10.33;5.80;;;;;;;20.00;100.00;98614.53;5090980;28;20207;-71
2023/07/03 01:10:01;;;;;;;9.90;6.03;;;;;;;20.00;100.00;98613.75;5090639;28;20219;-72
2023/07/03 01:12:34;;;;;;;9.47;6.00;;;;;;;19.95;100.00;98622.06;5091226;28;20218;-71
2023/07/03 01:15:05;;;;;;;10.87;6.50;;;;;;;19.88;100.00;98619.41;5093901;28;20239;-71
2023/07/03 01:17:34;;;;;;;11.97;6.10;;;;;;;19.85;100.00;98616.38;5090166;28;20688;-71
2023/07/03 01:20:04;;;;;;;12.47;6.60;;;;;;;19.82;100.00;98621.91;5091309;28;20223;-71
2023/07/03 01:22:37;;;;;;;12.13;6.50;;;;;;;19.78;100.00;98623.25;5090612;28;20336;-71
2023/07/03 01:25:10;;;;;;;10.97;6.50;;;;;;;19.75;100.00;98621.03;5090344;28;20911;-71
2023/07/03 01:27:42;;;;;;;10.73;6.43;;;;;;;19.66;100.00;98617.72;5097971;28;20196;-71
2023/07/03 01:30:13;;;;;;;13.70;6.63;;;;;;;19.61;100.00;98626.03;5111051;28;20622;-71
2023/07/03 01:32:40;;;;;;;12.67;6.90;;;;;;;19.62;100.00;98625.03;5103472;28;20215;-71
2023/07/03 01:35:09;;;;;;;11.93;6.30;;;;;;;19.58;100.00;98626.41;5089166;28;20692;-71
2023/07/03 01:37:41;;;;;;;13.77;7.20;;;;;;;19.58;100.00;98625.59;5090790;28;20213;-71
2023/07/03 01:40:12;;;;;;;12.30;7.50;;;;;;;19.55;100.00;98631.94;5093204;28;20201;-71
2023/07/03 01:42:41;;;;;;;14.30;8.13;;;;;;;19.50;100.00;98623.88;5090621;28;20228;-71
2023/07/03 01:45:08;;;;;;;13.43;7.20;;;;;;;19.53;100.00;98623.53;5089587;28;20203;-71
2023/07/03 01:47:37;;;;;;;14.37;7.87;;;;;;;19.55;100.00;98625.94;5090646;28;20215;-71
2023/07/03 01:50:05;;;;;;;13.70;7.73;;;;;;;19.57;100.00;98619.56;5092804;28;20227;-71
2023/07/03 01:52:38;;;;;;;14.00;7.77;;;;;;;19.54;100.00;98625.13;5090395;28;20204;-71
2023/07/03 01:55:10;;;;;;;15.20;7.33;;;;;;;19.55;100.00;98626.75;5089966;28;20232;-71
2023/07/03 01:57:46;;;;;;;13.20;7.70;;;;;;;19.53;100.00;98623.53;5090503;28;20691;-71
2023/07/03 02:00:18;;;;;;;14.70;8.60;;;;;;;19.49;100.00;98617.09;5091349;28;20621;-71
2023/07/03 02:02:49;;;;;;;14.03;8.13;;;;;;;19.49;100.00;98627.47;5089372;28;20229;-71
2023/07/03 02:05:19;;;;;;;17.30;8.40;;;;;;;19.52;100.00;98616.75;5109221;28;20200;-71
2023/07/03 02:07:47;;;;;;;15.80;8.47;;;;;;;19.56;100.00;98623.16;5100971;28;20296;-71
2023/07/03 02:10:14;;;;;;;16.90;8.60;;;;;;;19.57;100.00;98624.75;5089837;28;20685;-71
2023/07/03 02:12:46;;;;;;;15.33;8.10;;;;;;;19.49;100.00;98624.88;5093912;28;20216;-71
2023/07/03 02:15:15;;;;;;;14.97;8.27;;;;;;;19.48;100.00;98628.44;5110099;28;20201;-71
2023/07/03 02:17:42;;;;;;;16.43;8.03;;;;;;;19.42;100.00;98632.53;5093799;28;20228;-71
2023/07/03 02:20:13;;;;;;;16.20;9.40;;;;;;;19.44;100.00;98632.38;5089672;28;20200;-71
2023/07/03 02:22:40;;;;;;;14.07;7.80;;;;;;;19.45;100.00;98637.38;5090024;28;20296;-71
2023/07/03 02:25:08;;;;;;;13.10;8.07;;;;;;;19.45;100.00;98646.94;5092120;28;20633;-71
2023/07/03 02:27:35;;;;;;;15.37;7.87;;;;;;;19.43;100.00;98641.13;5089406;28;20204;-71
2023/07/03 02:30:04;;;;;;;15.83;8.07;;;;;;;19.43;100.00;98638.53;5089171;28;20590;-71
2023/07/03 02:32:34;;;;;;;14.23;8.23;;;;;;;19.49;100.00;98639.59;5090137;28;20585;-71
2023/07/03 02:35:01;;;;;;;14.70;8.57;;;;;;;19.47;100.00;98646.78;5092652;28;20236;-71
2023/07/03 02:37:28;;;;;;;14.17;8.53;;;;;;;19.40;100.00;98649.25;5089605;28;20590;-71
2023/07/03 02:39:54;;;;;;;17.13;8.70;;;;;;;19.43;100.00;98643.72;5089075;28;20986;-71
2023/07/03 02:42:21;;;;;;;14.70;8.47;;;;;;;19.44;100.00;98650.53;5089612;28;20211;-71
2023/07/03 02:44:48;;;;;;;16.20;8.27;;;;;;;19.45;100.00;98657.31;5092077;28;20232;-71
2023/07/03 02:47:16;;;;;;;14.57;8.00;;;;;;;19.45;100.00;98647.75;5089439;28;20212;-71
2023/07/03 02:49:43;;;;;;;15.33;7.87;;;;;;;19.47;100.00;98654.56;5089579;28;20241;-71
2023/07/03 02:52:10;;;;;;;15.13;8.20;;;;;;;19.49;100.00;98660.34;5090195;28;20259;-71
2023/07/03 02:54:37;;;;;;;15.70;8.63;;;;;;;19.40;100.00;98664.81;5090883;28;20705;-71
2023/07/03 02:57:04;;;;;;;14.83;7.53;;;;;;;19.43;100.00;98659.28;5089061;28;20196;-71
2023/07/03 02:59:32;;;;;;;14.53;7.83;;;;;;;19.45;100.00;98663.31;5105265;28;20225;-71
2023/07/03 03:01:59;;;;;;;12.43;7.73;;;;;;;19.41;100.00;98666.44;5102832;28;20274;-71
2023/07/03 03:04:27;;;;;;;15.03;8.80;;;;;;;19.39;100.00;98673.59;5089275;28;20299;-71
2023/07/03 03:06:54;;;;;;;15.20;7.97;;;;;;;19.38;100.00;98669.41;5091679;28;20247;-71
2023/07/03 03:09:21;;;;;;;14.67;7.83;;;;;;;19.34;100.00;98671.50;5089070;28;20224;-71
2023/07/03 03:11:47;;;;;;;16.33;8.20;;;;;;;19.33;100.00;98676.88;5087867;28;20212;-71
2023/07/03 03:14:14;;;;;;;14.37;7.87;;;;;;;19.36;100.00;98673.94;5089680;28;20239;-71
2023/07/03 03:16:41;;;;;;;14.73;7.50;;;;;;;19.34;100.00;98671.50;5087340;28;20265;-71
2023/07/03 03:19:08;;;;;;;12.17;7.97;;;;;;;19.35;100.00;98673.16;5088115;28;20598;-71
2023/07/03 03:21:38;;;;;;;14.67;7.17;;;;;;;19.38;100.00;98682.34;5092391;28;20207;-71
2023/07/03 03:24:05;;;;;;;15.03;8.43;;;;;;;19.36;100.00;98677.34;5088799;28;20233;-71
2023/07/03 03:26:32;;;;;;;13.30;7.83;;;;;;;19.41;100.00;98676.81;5103706;28;20206;-71
2023/07/03 03:28:59;;;;;;;15.97;7.57;;;;;;;19.34;100.00;98675.91;5104732;28;20218;-71
2023/07/03 03:31:25;;;;;;;13.43;7.50;;;;;;;19.32;100.00;98678.69;5088706;28;20200;-71
2023/07/03 03:33:52;;;;;;;15.00;7.27;;;;;;;19.33;100.00;98680.28;5088652;28;20227;-71
2023/07/03 03:36:19;;;;;;;13.50;7.70;;;;;;;19.34;100.00;98674.09;5089300;28;20210;-71
2023/07/03 03:38:47;;;;;;;13.77;7.40;;;;;;;19.34;100.00;98679.28;5091517;28;20716;-71
2023/07/03 03:41:14;;;;;;;13.10;7.27;;;;;;;19.37;100.00;98675.53;5088755;28;20207;-71
2023/07/03 03:43:41;;;;;;;14.43;7.33;;;;;;;19.34;100.00;98670.72;5089049;28;20334;-72
2023/07/03 03:46:08;;;;;;;14.83;8.17;;;;;;;19.33;100.00;98674.28;5088777;28;20205;-72
2023/07/03 03:48:35;;;;;;;14.07;7.60;;;;;;;19.38;100.00;98677.97;5091977;28;20229;-72
2023/07/03 03:51:03;;;;;;;13.87;7.57;;;;;;;19.36;100.00;98673.94;5092542;28;20201;-71
2023/07/03 03:53:30;;;;;;;14.27;7.93;;;;;;;19.39;100.00;98681.38;5104769;28;20258;-72
2023/07/03 03:55:58;;;;;;;14.37;7.53;;;;;;;19.42;100.00;98678.41;5110139;28;20679;-72
2023/07/03 03:58:25;;;;;;;13.43;7.47;;;;;;;19.45;100.00;98688.44;5092460;28;20240;-71
2023/07/03 04:00:52;;;;;;;14.70;7.80;;;;;;;19.55;100.00;98681.22;5092016;28;20214;-71
2023/07/03 04:03:19;;;;;;;14.20;7.47;;;;;;;19.52;100.00;98684.16;5092971;28;20688;-71
2023/07/03 04:05:47;;;;;;;13.40;7.73;;;;;;;19.56;100.00;98685.41;5094934;28;20595;-71
2023/07/03 04:08:14;;;;;;;15.03;8.13;;;;;;;19.56;100.00;98688.00;5092136;28;20223;-71
2023/07/03 04:10:42;;;;;;;12.90;7.47;;;;;;;19.59;100.00;98690.22;5095780;28;20194;-71
2023/07/03 04:13:11;;;;;;;13.43;8.23;;;;;;;19.68;100.00;98694.38;5112446;28;20714;-71
2023/07/03 04:15:51;;;;;;;13.67;7.67;;;;;;;19.69;100.00;98682.19;5098052;28;20477;-71
2023/07/03 04:18:18;;;;;;;16.57;8.23;;;;;;;19.76;100.00;98687.50;5092463;28;20241;-71
2023/07/03 04:20:45;;;;;;;15.10;8.20;;;;;;;19.82;100.00;98689.38;5092026;28;20201;-72
2023/07/03 04:23:12;;;;;;;15.20;8.23;;;;;;;19.85;100.00;98689.00;5093025;28;20616;-72
2023/07/03 04:25:38;;;;;;;15.57;8.37;;;;;;;19.95;100.00;98692.13;5093082;28;20204;-72
2023/07/03 04:28:06;;;;;;;13.63;7.13;;;;;;;19.96;100.00;98683.38;5091306;28;20221;-71
2023/07/03 04:30:34;;;;;;;14.17;8.13;;;;;;;20.08;100.00;98694.88;5110517;28;20905;-72
2023/07/03 04:33:01;;;;;;;14.97;8.37;;;;;;;20.12;100.00;98685.75;5105294;28;20212;-71
2023/07/03 04:35:28;;;;;;;17.77;8.83;;;;;;;20.25;100.00;98695.50;5091684;28;20219;-71
2023/07/03 04:37:55;;;;;;;14.63;7.80;;;;;;;20.30;100.00;98695.75;5091553;28;20923;-71
2023/07/03 04:40:21;;;;;;;13.43;7.67;;;;;;;20.43;100.00;98696.88;5091684;28;20199;-71
2023/07/03 04:42:48;;;;;;;15.17;8.10;;;;;;;20.50;100.00;98693.34;5094771;28;20206;-72
2023/07/03 04:45:16;;;;;;;17.37;7.93;;;;;;;20.66;100.00;98701.94;5091539;28;20240;-72
2023/07/03 04:47:44;;;;;;;14.00;7.83;;;;;;;20.75;100.00;98700.81;5090653;28;20207;-71
2023/07/03 04:50:14;;;;;;;13.67;7.70;;;;;;;20.85;100.00;98701.31;5088831;28;20674;-71
2023/07/03 04:52:41;;;;;;;14.90;8.20;;;;;;;21.00;100.00;98704.66;5089319;28;20217;-72
2023/07/03 04:55:11;;;;;;;15.27;8.93;;;;;;;21.21;100.00;98714.22;5090232;28;20197;-72
2023/07/03 04:57:38;;;;;;;12.87;8.43;;;;;;;21.27;100.00;98712.66;5089723;28;20213;-72
2023/07/03 05:00:14;;;;;;;13.40;7.57;;;;;;;21.41;100.00;98711.78;5090071;28;20632;-71
2023/07/03 05:02:41;;;;;;;14.50;7.93;;;;;;;21.52;100.00;98717.44;5091495;28;20266;-72
2023/07/03 05:05:11;;;;;;;12.77;7.80;;;;;;;21.66;100.00;98719.16;5093068;28;20238;-72
2023/07/03 05:07:38;;;;;;;12.40;7.67;;;;;;;21.71;100.00;98716.78;5093681;28;20245;-72
2023/07/03 05:10:06;;;;;;;12.23;7.70;;;;;;;21.85;100.00;98718.47;5090964;28;20658;-72
2023/07/03 05:12:33;;;;;;;12.90;7.97;;;;;;;22.07;100.00;98715.75;5104077;28;20216;-72
2023/07/03 05:15:00;;;;;;;13.68;8.15;;;;;;;22.24;100.00;98722.25;5098176;28;20222;-72
2023/07/03 05:17:27;;;;;;;12.68;7.78;;;;;;;22.27;100.00;98719.25;5090943;28;20205;-72
2023/07/03 05:19:54;;;;;;;12.05;7.57;;;;;;;22.38;100.00;98728.31;5090699;28;20214;-72
2023/07/03 05:22:22;;;;;;;11.90;7.20;;;;;;;22.58;100.00;98726.56;5090707;28;20209;-71
2023/07/03 05:24:50;;;;;;;14.40;7.63;;;;;;;22.66;100.00;98736.03;5102837;28;20668;-71
2023/07/03 05:27:17;;;;;;;11.57;6.88;;;;;;;22.73;100.00;98731.63;5110999;28;20289;-71
2023/07/03 05:29:43;;;;;;;12.43;7.90;;;;;;;22.83;100.00;98728.59;5110683;28;20217;-72
2023/07/03 05:32:11;;;;;;;12.88;7.55;;;;;;;22.93;100.00;98730.84;5105953;28;20205;-72
2023/07/03 05:34:38;;;;;;;13.48;7.22;;;;;;;23.01;100.00;98743.72;5090968;28;20660;-71
2023/07/03 05:37:06;;;;;;;10.85;6.95;;;;;;;23.01;100.00;98739.31;5090489;28;20289;-72
2023/07/03 05:39:34;;;;;;;11.75;7.05;;;;;;;23.05;100.00;98742.31;5090259;28;20718;-72
2023/07/03 05:42:02;;;;;;;11.40;6.90;;;;;;;23.25;100.00;98750.94;5089843;28;20198;-72
2023/07/03 05:44:29;;;;;;;11.57;6.80;;;;;;;23.43;100.00;98755.56;5088936;28;20284;-72
2023/07/03 05:46:55;;;;;;;12.95;7.05;;;;;;;23.50;100.00;98742.50;5089995;28;20206;-72
2023/07/03 05:49:22;;;;;;;9.82;6.90;;;;;;;23.48;100.00;98754.97;5090055;28;20218;-72
2023/07/03 05:51:49;;;;;;;12.05;7.18;;;;;;;23.56;100.00;98752.16;5103142;28;20205;-72
2023/07/03 05:54:21;;;;;;;14.88;7.85;;;;;;;23.75;100.00;98754.94;5110286;28;20648;-72
2023/07/03 05:56:58;;;;;;;12.27;6.78;;;;;;;23.89;100.00;98762.53;5110450;28;20263;-72
2023/07/03 05:59:25;;;;;;;11.02;7.15;;;;;;;23.97;100.00;98764.13;5093746;28;20275;-72
2023/07/03 06:01:53;;;;;;;11.02;7.10;;;;;;;24.14;100.00;98765.28;5107924;28;20204;-72
2023/07/03 06:04:22;;;;;;;10.07;7.00;;;;;;;24.23;100.00;98770.25;5109956;28;20643;-72
2023/07/03 06:06:49;;;;;;;10.52;7.30;;;;;;;24.38;100.00;98770.81;5106388;28;20233;-72
2023/07/03 06:09:16;;;;;;;14.07;7.82;;;;;;;24.34;100.00;98767.00;5090263;28;20218;-72
2023/07/03 06:11:43;;;;;;;9.80;6.90;;;;;;;24.50;100.00;98766.56;5095002;28;20206;-72
2023/07/03 06:14:15;;;;;;;11.75;7.95;;;;;;;24.51;100.00;98765.53;5109852;28;20612;-72
2023/07/03 06:16:42;;;;;;;11.00;7.13;;;;;;;24.59;100.00;98767.94;5105613;28;20210;-72
2023/07/03 06:19:09;;;;;;;11.52;7.60;;;;;;;24.76;100.00;98776.09;5109719;27;20205;-72
2023/07/03 06:21:36;;;;;;;11.65;7.28;;;;;;;24.83;100.00;98774.22;5106928;28;20200;-72
2023/07/03 06:24:03;;;;;;;10.88;7.35;;;;;;;24.97;100.00;98774.16;5109583;28;20603;-72
2023/07/03 06:26:31;;;;;;;11.07;7.45;;;;;;;25.04;99.06;98780.91;5094134;28;20222;-72
2023/07/03 06:28:57;;;;;;;16.95;9.13;;;;;;;25.17;98.96;98782.69;5089494;28;20222;-72
2023/07/03 06:31:26;;;;;;;14.40;8.32;;;;;;;25.31;98.09;98791.25;5095397;28;20790;-72
2023/07/03 06:33:53;;;;;;;11.85;7.72;;;;;;;25.45;97.18;98792.75;5105522;28;20316;-72
2023/07/03 06:36:21;;;;;;;13.15;8.30;;;;;;;25.55;96.94;98791.44;5107258;27;20196;-72
2023/07/03 06:38:48;;;;;;;12.18;7.40;;;;;;;25.71;98.30;98785.63;5109230;28;20213;-72
2023/07/03 06:41:15;;;;;;;11.65;7.50;;;;;;;25.81;96.86;98785.97;5111041;27;20749;-72
2023/07/03 06:43:42;;;;;;;14.68;7.95;;;;;;;25.98;97.02;98791.47;5104883;28;20221;-72
2023/07/03 06:46:10;;;;;;;11.63;7.18;;;;;;;26.05;94.03;98792.19;5109824;27;20223;-72
2023/07/03 06:48:39;;;;;;;11.32;6.63;;;;;;;26.23;95.80;98791.38;5106727;28;20225;-72
2023/07/03 06:51:07;;;;;;;13.18;7.03;;;;;;;26.32;94.47;98797.13;5110096;28;20201;-72
2023/07/03 06:53:35;;;;;;;11.45;7.25;;;;;;;26.59;95.01;98789.75;5105040;28;20217;-72
2023/07/03 06:56:02;;;;;;;9.27;6.28;;;;;;;26.77;89.35;98800.19;5108619;28;20201;-72
2023/07/03 06:58:30;;;;;;;10.63;6.43;;;;;;;26.78;88.12;98793.91;5108680;28;20733;-72
2023/07/03 07:00:57;;;;;;;13.82;6.07;;;;;;;26.81;87.28;98801.34;5106341;28;20606;-72
2023/07/03 07:03:24;;;;;;;9.57;6.10;;;;;;;27.08;89.73;98806.22;5106412;28;20236;-72
2023/07/03 07:05:54;;;;;;;9.40;6.20;;;;;;;27.16;86.70;98808.53;5105910;28;20226;-72
2023/07/03 07:08:22;;;;;;;9.20;6.00;;;;;;;27.31;90.91;98806.31;5111046;28;20293;-72
2023/07/03 07:10:49;;;;;;;8.43;6.07;;;;;;;27.31;83.59;98811.56;5106235;28;20217;-72
2023/07/03 07:13:15;;;;;;;10.13;6.35;;;;;;;27.53;81.87;98818.88;5077273;28;20231;-72
2023/07/03 07:15:42;;;;;;;9.05;6.45;;;;;;;27.43;80.33;98819.44;5058696;28;20257;-72
2023/07/03 07:18:10;;;;;;;11.52;6.35;;;;;;;27.50;79.97;98825.38;5057712;28;20746;-72
2023/07/03 07:20:37;;;;;;;9.05;5.97;;;;;;;27.37;80.77;98824.78;5068564;28;20210;-72
2023/07/03 07:23:07;;;;;;;9.35;6.18;;;;;;;27.41;79.35;98836.44;5066302;28;20218;-72
2023/07/03 07:25:34;;;;;;;9.52;5.93;;;;;;;27.57;78.81;98835.75;5055755;28;20227;-72
2023/07/03 07:28:01;;;;;;;14.77;7.10;;;;;;;27.96;83.56;98828.28;5068628;28;20203;-71
